createdAt,value
2022-11-20T00:02:42.313Z,20.60
2022-11-20T00:05:44.584Z,20.03
2022-11-20T00:08:49.009Z,20.13
2022-11-20T00:11:54.536Z,20.17
2022-11-20T00:14:56.138Z,20.73
2022-11-20T00:17:57.805Z,19.60
2022-11-20T00:21:08.096Z,20.43
2022-11-20T00:24:11.381Z,21.50
2022-11-20T00:27:13.253Z,20.07
2022-11-20T00:30:15.415Z,19.20
2022-11-20T00:33:17.303Z,20.90
2022-11-20T00:36:33.892Z,19.80
2022-11-20T00:39:35.904Z,19.37
2022-11-20T00:42:40.091Z,19.30
2022-11-20T00:49:25.520Z,20.07
2022-11-20T00:52:27.297Z,19.33
2022-11-20T00:55:29.203Z,20.10
2022-11-20T00:58:35.485Z,19.77
2022-11-20T01:01:38.284Z,19.77
2022-11-20T01:04:43.194Z,19.77
2022-11-20T01:07:47.754Z,18.00
2022-11-20T01:10:49.655Z,18.20
2022-11-20T01:13:53.471Z,18.17
2022-11-20T01:16:55.296Z,18.00
2022-11-20T01:20:02.816Z,18.53
2022-11-20T01:23:10.793Z,19.37
2022-11-20T01:26:20.677Z,19.73
2022-11-20T01:29:25.525Z,19.83
2022-11-20T01:32:27.509Z,19.73
2022-11-20T01:35:29.257Z,22.10
2022-11-20T01:38:31.048Z,19.80
2022-11-20T01:41:53.211Z,19.87
2022-11-20T01:44:58.964Z,18.80
2022-11-20T01:48:01.078Z,19.43
2022-11-20T01:51:40.681Z,23.67
2022-11-20T01:54:49.364Z,21.03
2022-11-20T01:57:56.820Z,23.33
2022-11-20T02:04:10.873Z,22.27
2022-11-20T02:07:13.343Z,21.60
2022-11-20T02:10:16.153Z,20.10
2022-11-20T02:13:36.766Z,21.80
2022-11-20T02:16:47.267Z,20.67
2022-11-20T02:19:53.535Z,21.47
2022-11-20T02:23:03.608Z,21.90
2022-11-20T02:26:09.910Z,22.03
2022-11-20T02:29:35.291Z,22.57
2022-11-20T02:32:37.852Z,20.77
2022-11-20T02:35:50.158Z,23.27
2022-11-20T02:38:57.961Z,22.77
2022-11-20T02:42:03.398Z,23.50
2022-11-20T02:45:06.744Z,23.83
2022-11-20T02:48:08.814Z,23.73
2022-11-20T02:51:10.780Z,21.50
2022-11-20T02:54:13.964Z,21.57
2022-11-20T02:57:15.682Z,21.37
2022-11-20T03:00:26.563Z,22.73
2022-11-20T03:03:39.181Z,22.73
2022-11-20T03:06:40.938Z,21.93
2022-11-20T03:09:44.031Z,21.30
2022-11-20T03:12:46.377Z,21.70
2022-11-20T03:15:48.214Z,22.57
2022-11-20T03:18:52.761Z,22.47
2022-11-20T03:21:54.554Z,21.07
2022-11-20T03:24:56.464Z,20.67
2022-11-20T03:27:58.259Z,20.27
2022-11-20T03:31:20.200Z,21.03
2022-11-20T03:34:24.883Z,21.37
2022-11-20T03:37:26.604Z,22.73
2022-11-20T03:40:28.558Z,20.70
2022-11-20T03:43:30.604Z,21.13
2022-11-20T03:46:34.827Z,21.07
2022-11-20T03:49:36.605Z,21.53
2022-11-20T03:52:38.262Z,19.87
2022-11-20T03:55:40.060Z,20.50
2022-11-20T03:58:42.371Z,20.67
2022-11-20T04:01:49.319Z,21.47
2022-11-20T04:04:54.295Z,20.17
2022-11-20T04:07:56.107Z,21.17
2022-11-20T04:14:23.856Z,19.80
2022-11-20T04:17:25.547Z,21.27
2022-11-20T04:20:27.290Z,21.20
2022-11-20T04:23:29.134Z,20.50
2022-11-20T04:26:34.426Z,18.10
2022-11-20T04:29:39.150Z,19.57
2022-11-20T04:32:40.776Z,19.73
2022-11-20T04:35:42.629Z,18.43
2022-11-20T04:38:44.870Z,19.13
2022-11-20T04:41:46.603Z,17.90
2022-11-20T04:44:48.426Z,18.67
2022-11-20T04:47:50.582Z,18.27
2022-11-20T04:50:52.944Z,17.83
2022-11-20T04:53:54.996Z,18.60
2022-11-20T04:56:56.734Z,18.73
2022-11-20T04:59:58.493Z,20.23
2022-11-20T05:03:00.770Z,17.33
2022-11-20T05:06:06.726Z,18.70
2022-11-20T05:09:08.654Z,19.20
2022-11-20T05:12:11.056Z,20.17
2022-11-20T05:15:12.866Z,18.40
2022-11-20T05:18:23.626Z,18.47
2022-11-20T05:21:25.519Z,17.87
2022-11-20T05:24:27.619Z,17.50
2022-11-20T05:27:31.816Z,18.50
2022-11-20T05:30:33.467Z,19.60
2022-11-20T05:33:36.455Z,18.40
2022-11-20T05:36:38.106Z,16.93
2022-11-20T05:39:39.961Z,17.53
2022-11-20T05:42:44.583Z,17.03
2022-11-20T05:45:56.510Z,21.40
2022-11-20T05:48:58.654Z,20.30
2022-11-20T05:52:00.540Z,17.13
2022-11-20T05:55:02.559Z,19.70
2022-11-20T05:58:04.428Z,22.30
2022-11-20T06:01:15.403Z,18.50
2022-11-20T06:04:19.785Z,18.13
2022-11-20T06:07:21.462Z,18.30
2022-11-20T06:10:23.133Z,19.00
2022-11-20T06:13:25.509Z,18.93
2022-11-20T06:16:27.311Z,17.00
2022-11-20T06:19:29.347Z,18.17
2022-11-20T06:22:31.025Z,17.77
2022-11-20T06:25:32.771Z,20.13
2022-11-20T06:28:34.590Z,18.67
2022-11-20T06:31:45.513Z,20.20
2022-11-20T06:34:47.317Z,18.63
2022-11-20T06:37:49.164Z,19.43
2022-11-20T06:40:54.098Z,19.93
2022-11-20T06:43:55.943Z,40.80
2022-11-20T06:46:57.738Z,19.00
2022-11-20T06:49:59.654Z,21.00
2022-11-20T06:53:04.946Z,17.97
2022-11-20T06:56:07.850Z,19.07
2022-11-20T06:59:09.741Z,20.20
2022-11-20T07:02:13.008Z,19.70
2022-11-20T07:05:23.774Z,17.40
2022-11-20T07:08:29.291Z,17.77
2022-11-20T07:11:30.959Z,19.07
2022-11-20T07:14:32.759Z,18.80
2022-11-20T07:17:37.333Z,18.87
2022-11-20T07:20:39.070Z,18.80
2022-11-20T07:23:40.899Z,18.13
2022-11-20T07:26:42.577Z,17.00
2022-11-20T07:29:44.294Z,17.30
2022-11-20T07:32:52.506Z,18.63
2022-11-20T07:35:54.229Z,15.43
2022-11-20T07:38:56.087Z,16.80
2022-11-20T07:41:57.673Z,16.50
2022-11-20T07:44:59.311Z,17.40
2022-11-20T07:48:01.234Z,18.33
2022-11-20T07:51:03.054Z,17.70
2022-11-20T07:54:05.055Z,16.77
2022-11-20T07:57:06.668Z,18.40
2022-11-20T08:00:10.784Z,18.13
2022-11-20T08:03:12.763Z,18.07
2022-11-20T08:06:15.651Z,17.47
2022-11-20T08:09:17.201Z,18.90
2022-11-20T08:12:39.198Z,16.30
2022-11-20T08:15:41.555Z,16.83
2022-11-20T08:18:43.141Z,16.17
2022-11-20T08:21:45.031Z,16.07
2022-11-20T08:24:46.622Z,15.10
2022-11-20T08:27:48.284Z,14.33
2022-11-20T08:30:51.143Z,15.27
2022-11-20T08:33:53.248Z,17.77
2022-11-20T08:36:54.940Z,15.23
2022-11-20T08:39:57.858Z,15.77
2022-11-20T08:42:59.734Z,16.80
2022-11-20T08:46:01.467Z,15.77
2022-11-20T08:49:04.039Z,15.20
2022-11-20T08:52:06.477Z,15.50
2022-11-20T08:55:09.116Z,15.23
2022-11-20T08:58:10.981Z,15.50
2022-11-20T09:01:12.664Z,15.57
2022-11-20T09:04:15.256Z,16.97
2022-11-20T09:07:17.135Z,16.63
2022-11-20T09:10:25.814Z,14.83
2022-11-20T09:13:31.730Z,15.40
2022-11-20T09:16:33.491Z,16.10
2022-11-20T09:19:36.491Z,16.40
2022-11-20T09:22:40.938Z,15.70
2022-11-20T09:25:43.348Z,14.37
2022-11-20T09:28:45.248Z,16.90
2022-11-20T09:31:47.110Z,14.23
2022-11-20T09:34:48.695Z,16.30
2022-11-20T09:37:52.062Z,15.37
2022-11-20T09:41:07.143Z,14.63
2022-11-20T09:44:38.859Z,14.80
2022-11-20T09:48:05.087Z,16.60
2022-11-20T09:51:15.020Z,17.17
2022-11-20T09:54:21.726Z,15.10
2022-11-20T09:57:32.078Z,16.00
2022-11-20T10:00:42.944Z,16.90
2022-11-20T10:03:59.095Z,16.37
2022-11-20T10:07:30.976Z,16.00
2022-11-20T10:10:53.604Z,15.93
2022-11-20T10:14:30.742Z,14.03
2022-11-20T10:18:27.786Z,16.20
2022-11-20T10:21:46.983Z,15.27
2022-11-20T10:25:21.030Z,15.20
2022-11-20T10:28:40.840Z,16.17
2022-11-20T10:31:50.207Z,15.17
2022-11-20T10:35:01.376Z,13.80
2022-11-20T10:38:24.461Z,14.50
2022-11-20T10:41:37.079Z,16.00
2022-11-20T10:45:04.390Z,15.87
2022-11-20T10:48:08.233Z,15.30
2022-11-20T10:52:04.796Z,15.53
2022-11-20T10:55:19.585Z,17.23
2022-11-20T10:58:38.494Z,15.80
2022-11-20T11:01:43.798Z,15.63
2022-11-20T11:04:49.878Z,15.23
2022-11-20T11:07:56.350Z,16.30
2022-11-20T11:11:13.867Z,15.60
2022-11-20T11:14:21.515Z,15.97
2022-11-20T11:17:32.855Z,16.47
2022-11-20T11:20:34.561Z,16.33
2022-11-20T11:23:40.505Z,16.80
2022-11-20T11:26:58.898Z,17.70
2022-11-20T11:30:14.962Z,15.53
2022-11-20T11:33:22.729Z,16.83
2022-11-20T11:36:25.983Z,17.30
2022-11-20T11:39:29.432Z,17.60
2022-11-20T11:42:31.784Z,16.00
2022-11-20T11:45:33.457Z,17.20
2022-11-20T11:48:35.191Z,16.10
2022-11-20T11:51:48.890Z,15.90
2022-11-20T11:55:00.817Z,17.40
2022-11-20T11:58:34.611Z,17.17
2022-11-20T12:01:51.987Z,19.27
2022-11-20T12:05:25.373Z,20.37
2022-11-20T12:08:49.267Z,17.80
2022-11-20T12:12:00.732Z,20.90
2022-11-20T12:15:03.374Z,17.10
2022-11-20T12:18:15.315Z,17.33
2022-11-20T12:21:27.255Z,21.43
2022-11-20T12:25:00.014Z,21.77
2022-11-20T12:28:46.987Z,19.73
2022-11-20T12:32:14.145Z,15.70
2022-11-20T12:35:50.015Z,17.70
2022-11-20T12:39:29.449Z,19.20
2022-11-20T12:43:11.866Z,15.33
2022-11-20T12:46:25.428Z,14.33
2022-11-20T12:49:47.275Z,17.77
2022-11-20T12:52:57.431Z,17.33
2022-11-20T12:56:18.280Z,16.80
2022-11-20T12:59:41.626Z,47.20
2022-11-20T13:03:14.032Z,28.00
2022-11-20T13:06:20.319Z,22.33
2022-11-20T13:09:24.178Z,41.17
2022-11-20T13:12:42.625Z,39.50
2022-11-20T13:15:52.920Z,19.07
2022-11-20T13:18:54.894Z,20.50
2022-11-20T13:21:56.602Z,17.00
2022-11-20T13:24:58.236Z,28.70
2022-11-20T13:28:04.167Z,17.93
2022-11-20T13:31:05.817Z,15.67
2022-11-20T13:34:08.082Z,15.70
2022-11-20T13:37:27.525Z,18.40
2022-11-20T13:40:29.388Z,18.20
2022-11-20T13:43:41.418Z,15.20
2022-11-20T13:46:45.707Z,19.40
2022-11-20T13:49:49.149Z,30.00
2022-11-20T13:52:53.744Z,135.77
2022-11-20T13:55:59.875Z,45.13
2022-11-20T13:59:32.579Z,17.50
2022-11-20T14:02:36.026Z,18.27
2022-11-20T14:05:41.706Z,22.90
2022-11-20T14:08:50.058Z,17.37
2022-11-20T14:11:51.730Z,18.33
2022-11-20T14:14:55.349Z,18.20
2022-11-20T14:17:57.814Z,16.70
2022-11-20T14:21:02.511Z,20.03
2022-11-20T14:24:10.736Z,19.80
2022-11-20T14:27:18.466Z,16.70
2022-11-20T14:30:23.707Z,27.37
2022-11-20T14:33:27.559Z,20.07
2022-11-20T14:36:29.393Z,18.33
2022-11-20T14:39:36.194Z,21.30
2022-11-20T14:42:38.324Z,21.23
2022-11-20T14:45:39.987Z,23.20
2022-11-20T14:48:55.623Z,19.40
2022-11-20T14:52:02.559Z,20.27
2022-11-20T14:55:04.539Z,25.90
2022-11-20T14:58:23.849Z,29.40
2022-11-20T15:01:33.562Z,22.93
2022-11-20T15:04:48.909Z,27.83
2022-11-20T15:08:04.796Z,22.80
2022-11-20T15:11:21.719Z,30.57
2022-11-20T15:14:25.608Z,38.03
2022-11-20T15:17:27.515Z,23.87
2022-11-20T15:20:32.991Z,34.60
2022-11-20T15:23:35.696Z,29.93
2022-11-20T15:26:38.849Z,26.00
2022-11-20T15:29:41.084Z,28.07
2022-11-20T15:32:43.159Z,28.30
2022-11-20T15:35:45.288Z,37.23
2022-11-20T15:38:47.097Z,21.40
2022-11-20T15:41:48.695Z,22.87
2022-11-20T15:44:50.285Z,19.40
2022-11-20T15:47:51.857Z,18.30
2022-11-20T15:50:54.998Z,19.07
2022-11-20T15:53:57.298Z,17.60
2022-11-20T15:57:00.049Z,16.50
2022-11-20T16:00:01.813Z,16.17
2022-11-20T16:03:04.042Z,16.37
2022-11-20T16:06:06.156Z,14.67
2022-11-20T16:09:08.347Z,15.47
2022-11-20T16:12:30.937Z,15.10
2022-11-20T16:15:47.875Z,13.87
2022-11-20T16:18:50.287Z,14.60
2022-11-20T16:21:52.250Z,12.50
2022-11-20T16:24:53.877Z,21.27
2022-11-20T16:27:55.472Z,13.13
2022-11-20T16:30:57.141Z,13.17
2022-11-20T16:34:01.847Z,14.40
2022-11-20T16:37:04.224Z,13.20
2022-11-20T16:40:06.596Z,8.80
2022-11-20T16:43:10.989Z,8.80
2022-11-20T16:46:12.676Z,8.70
2022-11-20T16:49:15.319Z,9.13
2022-11-20T16:52:16.949Z,8.23
2022-11-20T16:55:18.661Z,7.83
2022-11-20T16:58:22.331Z,6.53
2022-11-20T17:01:25.400Z,6.73
2022-11-20T17:04:27.083Z,6.37
2022-11-20T17:07:28.736Z,4.63
2022-11-20T17:10:30.439Z,4.10
2022-11-20T17:13:35.936Z,3.60
2022-11-20T17:16:40.703Z,4.20
2022-11-20T17:19:42.397Z,8.37
2022-11-20T17:22:45.082Z,6.73
2022-11-20T17:25:47.602Z,4.90
2022-11-20T17:28:59.010Z,3.70
2022-11-20T17:32:00.669Z,3.00
2022-11-20T17:35:02.237Z,2.37
2022-11-20T17:38:03.816Z,3.00
2022-11-20T17:41:13.928Z,3.57
2022-11-20T17:44:15.533Z,2.60
2022-11-20T17:47:17.102Z,2.57
2022-11-20T17:50:18.921Z,2.90
2022-11-20T17:53:21.187Z,3.17
2022-11-20T17:56:41.996Z,3.47
2022-11-20T17:59:43.745Z,3.00
2022-11-20T18:02:45.695Z,3.40
2022-11-20T18:05:47.333Z,3.27
2022-11-20T18:08:50.088Z,4.13
2022-11-20T18:11:51.663Z,4.30
2022-11-20T18:14:53.269Z,5.20
2022-11-20T18:17:55.564Z,4.30
2022-11-20T18:20:57.157Z,3.20
2022-11-20T18:23:59.041Z,8.10
2022-11-20T18:27:00.699Z,4.23
2022-11-20T18:30:02.664Z,4.97
2022-11-20T18:33:05.099Z,4.23
2022-11-20T18:36:11.014Z,4.20
2022-11-20T18:39:13.821Z,3.50
2022-11-20T18:42:35.001Z,4.73
2022-11-20T18:45:36.572Z,5.70
2022-11-20T18:48:38.770Z,7.60
2022-11-20T18:51:41.332Z,14.57
2022-11-20T18:54:42.984Z,8.60
2022-11-20T18:57:44.709Z,6.07
2022-11-20T19:00:46.306Z,9.13
2022-11-20T19:03:48.021Z,4.00
2022-11-20T19:06:49.834Z,5.10
2022-11-20T19:09:52.650Z,4.87
2022-11-20T19:12:54.328Z,5.57
2022-11-20T19:16:05.252Z,4.00
2022-11-20T19:19:07.422Z,4.30
2022-11-20T19:22:09.604Z,3.03
2022-11-20T19:25:11.378Z,2.73
2022-11-20T19:28:13.087Z,2.67
2022-11-20T19:31:23.079Z,2.60
2022-11-20T19:34:26.321Z,3.07
2022-11-20T19:37:27.954Z,3.23
2022-11-20T19:40:30.546Z,3.10
2022-11-20T19:43:32.282Z,3.70
2022-11-20T19:46:35.769Z,2.87
2022-11-20T19:49:37.477Z,2.40
2022-11-20T19:52:39.234Z,2.70
2022-11-20T19:55:43.062Z,2.20
2022-11-20T19:58:44.769Z,2.30
2022-11-20T20:01:47.016Z,1.97
2022-11-20T20:04:48.851Z,1.80
2022-11-20T20:07:58.169Z,1.63
2022-11-20T20:10:59.939Z,1.40
2022-11-20T20:14:07.211Z,1.40
2022-11-20T20:17:15.078Z,2.13
2022-11-20T20:20:20.212Z,1.93
2022-11-20T20:23:21.935Z,1.23
2022-11-20T20:26:25.221Z,1.60
2022-11-20T20:29:26.906Z,1.40
2022-11-20T20:32:49.765Z,1.80
2022-11-20T20:35:55.025Z,1.30
2022-11-20T20:39:02.816Z,1.30
2022-11-20T20:42:25.481Z,1.50
2022-11-20T20:45:53.803Z,2.10
2022-11-20T20:48:55.460Z,1.23
2022-11-20T20:51:57.379Z,1.40
2022-11-20T20:54:59.365Z,1.60
2022-11-20T20:58:04.696Z,1.40
2022-11-20T21:01:12.119Z,1.70
2022-11-20T21:04:19.807Z,1.40
2022-11-20T21:07:21.673Z,1.57
2022-11-20T21:10:24.260Z,1.47
2022-11-20T21:13:29.749Z,1.67
2022-11-20T21:16:46.932Z,1.90
2022-11-20T21:19:48.797Z,1.63
2022-11-20T21:22:52.760Z,1.77
2022-11-20T21:26:02.612Z,1.90
2022-11-20T21:29:04.379Z,1.93
2022-11-20T21:32:15.821Z,1.90
2022-11-20T21:35:23.824Z,2.43
2022-11-20T21:38:33.242Z,2.23
2022-11-20T21:41:42.062Z,2.60
2022-11-20T21:44:46.358Z,2.33
2022-11-20T21:52:02.560Z,2.33
2022-11-20T21:55:34.496Z,1.83
2022-11-20T21:58:43.493Z,2.00
2022-11-20T22:02:03.732Z,1.90
2022-11-20T22:05:07.392Z,2.30
2022-11-20T22:08:14.470Z,2.17
2022-11-20T22:11:25.523Z,2.70
2022-11-20T22:14:27.724Z,2.10
2022-11-20T22:17:48.276Z,2.43
2022-11-20T22:20:50.139Z,2.40
2022-11-20T22:23:52.462Z,2.47
2022-11-20T22:26:54.204Z,2.40
2022-11-20T22:29:55.909Z,2.77
2022-11-20T22:32:57.552Z,2.37
2022-11-20T22:36:08.284Z,2.80
2022-11-20T22:39:10.059Z,2.43
2022-11-20T22:42:11.746Z,2.67
2022-11-20T22:45:13.958Z,2.13
2022-11-20T22:48:15.583Z,2.30
2022-11-20T22:51:18.732Z,2.47
2022-11-20T22:54:20.342Z,2.30
2022-11-20T22:57:21.921Z,2.50
2022-11-20T23:00:23.723Z,2.97
2022-11-20T23:03:25.354Z,2.60
2022-11-20T23:06:27.268Z,2.70
2022-11-20T23:09:28.906Z,3.20
2022-11-20T23:12:30.550Z,2.50
2022-11-20T23:15:34.267Z,3.33
2022-11-20T23:18:36.603Z,2.67
2022-11-20T23:21:40.489Z,3.23
2022-11-20T23:24:42.307Z,3.20
2022-11-20T23:27:43.942Z,3.03
2022-11-20T23:30:47.609Z,2.73
2022-11-20T23:33:49.566Z,2.80
2022-11-20T23:36:52.377Z,3.27
2022-11-20T23:39:54.085Z,2.80
2022-11-20T23:43:14.419Z,3.30
2022-11-20T23:46:16.911Z,3.07
2022-11-20T23:49:18.921Z,4.17
2022-11-20T23:52:22.069Z,2.53
2022-11-20T23:55:23.982Z,2.63
2022-11-20T23:58:30.145Z,2.83
